Time;durP1;ratioP1;P1;durP2;ratioP2;P2;SDS_P1;SDS_P2;PMS_P1;PMS_P2;Temp;Humidity;BMP_temperature;BMP_pressure;BME280_temperature;BME280_humidity;BME280_pressure;Samples;Min_cycle;Max_cycle;Signal;HPM_P1;HPM_P2
2022/06/18 00:01:20;;;;;;;;;;;;;;;11.64;77.65;101080.80;84742;1324;22902;-72
2022/06/18 00:03:24;;;;;;;;;;;;;;;11.59;77.76;101087.59;84830;1324;22753;-71
2022/06/18 00:05:27;;;;;;;;;;;;;;;11.54;77.79;101084.44;84809;1326;22603;-71
2022/06/18 00:07:31;;;;;;;;;;;;;;;11.51;78.12;101085.73;84745;1326;22593;-70
2022/06/18 00:09:35;;;;;;;;;;;;;;;11.49;78.26;101089.83;84723;1326;23937;-70
2022/06/18 00:14:00;;;;;;;;;;;;;;;11.47;78.47;101085.67;84736;1327;24231;-71
2022/06/18 00:16:04;;;;;;;;;;;;;;;11.48;78.56;101086.54;84708;1326;22603;-70
2022/06/18 00:18:10;;;;;;;;;;;;;;;11.48;78.90;101085.14;84716;1326;22585;-70
2022/06/18 00:20:14;;;;;;;;;;;;;;;11.47;78.65;101082.71;84756;1326;22959;-70
2022/06/18 00:22:21;;;;;;;;;;;;;;;11.48;78.86;101081.83;84742;1326;22869;-71
2022/06/18 00:24:24;;;;;;;;;;;;;;;11.47;78.89;101084.80;84707;1330;22620;-71
2022/06/18 00:26:27;;;;;;;;;;;;;;;11.48;78.91;101083.73;84721;1326;22510;-71
2022/06/18 00:28:31;;;;;;;;;;;;;;;11.47;78.74;101082.71;84666;1329;22582;-72
2022/06/18 00:30:35;;;;;;;;;;;;;;;11.46;78.57;101085.35;84803;1327;22603;-70
2022/06/18 00:32:38;;;;;;;;;;;;;;;11.44;78.74;101085.96;84722;1325;25401;-71
2022/06/18 00:34:41;;;;;;;;;;;;;;;11.41;78.86;101086.73;84751;1326;22606;-70
2022/06/18 00:36:44;;;;;;;;;;;;;;;11.39;78.83;101085.41;84736;1326;22589;-71
2022/06/18 00:38:48;;;;;;;;;;;;;;;11.38;78.86;101085.43;84733;1327;22611;-71
2022/06/18 00:40:52;;;;;;;;;;;;;;;11.39;79.07;101084.72;84768;1326;24232;-70
2022/06/18 00:42:59;;;;;;;;;;;;;;;11.37;79.18;101087.01;84756;1327;22624;-70
2022/06/18 00:45:03;;;;;;;;;;;;;;;11.37;79.23;101086.48;84738;1326;22644;-71
2022/06/18 00:47:11;;;;;;;;;;;;;;;11.38;79.38;101091.72;84730;1327;22858;-71
2022/06/18 00:49:18;;;;;;;;;;;;;;;11.40;79.45;101091.48;84755;1326;22600;-71
2022/06/18 00:51:25;;;;;;;;;;;;;;;11.43;79.74;101089.46;84772;1326;23003;-71
2022/06/18 00:53:31;;;;;;;;;;;;;;;11.46;79.93;101085.35;84832;1326;22549;-71
2022/06/18 00:55:38;;;;;;;;;;;;;;;11.47;79.80;101078.88;84765;1326;24245;-72
2022/06/18 00:57:46;;;;;;;;;;;;;;;11.47;79.99;101079.75;84866;1326;22578;-71
2022/06/18 00:59:50;;;;;;;;;;;;;;;11.48;80.11;101081.46;84739;1329;22700;-71
2022/06/18 01:01:54;;;;;;;;;;;;;;;11.49;80.25;101080.04;84778;1326;23783;-71
2022/06/18 01:03:57;;;;;;;;;;;;;;;11.48;80.29;101081.65;84737;1325;22598;-71
2022/06/18 01:06:02;;;;;;;;;;;;;;;11.47;80.12;101080.98;84767;1327;22655;-70
2022/06/18 01:08:17;;;;;;;;;;;;;;;11.44;80.22;101082.82;84752;1326;24363;-71
2022/06/18 01:10:25;;;;;;;;;;;;;;;11.40;80.18;101080.15;84769;1328;22686;-71
2022/06/18 01:12:28;;;;;;;;;;;;;;;11.35;80.19;101074.69;84711;1330;25426;-71
2022/06/18 01:14:32;;;;;;;;;;;;;;;11.31;80.12;101078.80;84741;1327;25160;-71
2022/06/18 01:16:35;;;;;;;;;;;;;;;11.28;80.15;101077.17;84752;1326;22577;-71
2022/06/18 01:18:38;;;;;;;;;;;;;;;11.26;80.26;101078.09;84741;1327;22711;-71
2022/06/18 01:20:44;;;;;;;;;;;;;;;11.25;80.26;101074.45;84739;1327;22688;-71
2022/06/18 01:22:55;;;;;;;;;;;;;;;11.24;80.42;101067.16;84746;1328;22569;-71
2022/06/18 01:24:59;;;;;;;;;;;;;;;11.23;80.57;101068.76;84785;1326;24796;-70
2022/06/18 01:27:02;;;;;;;;;;;;;;;11.23;80.61;101066.66;84740;1325;24371;-70
2022/06/18 01:29:06;;;;;;;;;;;;;;;11.21;80.90;101063.23;84727;1326;25414;-70
2022/06/18 01:31:09;;;;;;;;;;;;;;;11.20;80.78;101063.63;84744;1328;22570;-71
2022/06/18 01:33:13;;;;;;;;;;;;;;;11.19;80.89;101059.81;84750;1326;22604;-71
2022/06/18 01:35:17;;;;;;;;;;;;;;;11.19;80.81;101059.27;84746;1326;22867;-71
2022/06/18 01:37:20;;;;;;;;;;;;;;;11.17;80.92;101060.19;84749;1327;25490;-70
2022/06/18 01:39:25;;;;;;;;;;;;;;;11.15;80.98;101058.50;84738;1326;23912;-71
2022/06/18 01:43:53;;;;;;;;;;;;;;;11.13;80.84;101056.65;84754;1328;22619;-72
2022/06/18 01:45:58;;;;;;;;;;;;;;;11.14;81.03;101054.04;84753;1325;22587;-71
2022/06/18 01:48:04;;;;;;;;;;;;;;;11.13;80.96;101053.86;84749;1326;22599;-71
2022/06/18 01:50:11;;;;;;;;;;;;;;;11.12;81.00;101051.79;84749;1325;22569;-70
2022/06/18 01:52:14;;;;;;;;;;;;;;;11.09;80.80;101053.45;84801;1329;22688;-70
2022/06/18 01:54:19;;;;;;;;;;;;;;;11.06;80.88;101054.94;84770;1325;22576;-71
2022/06/18 01:56:24;;;;;;;;;;;;;;;11.03;80.83;101052.23;84749;1326;22615;-71
2022/06/18 01:58:30;;;;;;;;;;;;;;;10.99;80.91;101052.86;84745;1326;22959;-71
2022/06/18 02:00:33;;;;;;;;;;;;;;;10.97;81.13;101053.98;84755;1326;22605;-70
2022/06/18 02:02:37;;;;;;;;;;;;;;;10.96;80.94;101049.81;84762;1326;25417;-70
2022/06/18 02:04:41;;;;;;;;;;;;;;;10.96;81.09;101048.95;84793;1326;22600;-71
2022/06/18 02:06:44;;;;;;;;;;;;;;;10.95;81.09;101046.00;84833;1326;22602;-70
2022/06/18 02:08:48;;;;;;;;;;;;;;;10.96;81.07;101039.67;84837;1330;22581;-71
2022/06/18 02:10:53;;;;;;;;;;;;;;;10.96;81.12;101037.23;84758;1326;22617;-71
2022/06/18 02:12:57;;;;;;;;;;;;;;;10.96;81.24;101032.37;84771;1326;22825;-71
2022/06/18 02:15:02;;;;;;;;;;;;;;;10.97;81.37;101034.59;84759;1326;22621;-71
2022/06/18 02:17:07;;;;;;;;;;;;;;;10.98;81.35;101035.44;84746;1326;25499;-71
2022/06/18 02:19:10;;;;;;;;;;;;;;;10.99;81.50;101034.73;84753;1327;22766;-71
2022/06/18 02:21:14;;;;;;;;;;;;;;;11.01;81.32;101031.86;84752;1328;23959;-70
2022/06/18 02:23:18;;;;;;;;;;;;;;;11.02;81.46;101028.34;84750;1329;22592;-71
2022/06/18 02:25:22;;;;;;;;;;;;;;;11.04;81.52;101026.56;84789;1327;22608;-71
2022/06/18 02:27:25;;;;;;;;;;;;;;;11.04;81.45;101029.00;84788;1326;23912;-71
2022/06/18 02:29:30;;;;;;;;;;;;;;;11.03;81.55;101029.54;84797;1326;22869;-70
2022/06/18 02:31:35;;;;;;;;;;;;;;;11.02;81.47;101025.71;84786;1330;25279;-71
2022/06/18 02:33:39;;;;;;;;;;;;;;;11.01;81.47;101024.52;84778;1326;22740;-72
2022/06/18 02:35:43;;;;;;;;;;;;;;;11.00;81.56;101020.37;84770;1326;22582;-71
2022/06/18 02:37:46;;;;;;;;;;;;;;;10.99;81.62;101020.59;84803;1326;22582;-71
2022/06/18 02:39:55;;;;;;;;;;;;;;;10.99;81.69;101023.21;84778;1330;25419;-71
2022/06/18 02:42:01;;;;;;;;;;;;;;;11.00;81.78;101023.88;84815;1327;22586;-72
2022/06/18 02:44:05;;;;;;;;;;;;;;;11.00;81.96;101019.31;84770;1327;22639;-71
2022/06/18 02:46:08;;;;;;;;;;;;;;;11.01;82.08;101015.27;84788;1326;22559;-71
2022/06/18 02:48:11;;;;;;;;;;;;;;;11.01;82.33;101013.36;84739;1326;23872;-71
2022/06/18 02:50:15;;;;;;;;;;;;;;;11.01;82.25;101009.33;84783;1329;22858;-71
2022/06/18 02:52:19;;;;;;;;;;;;;;;11.03;82.26;101010.68;84772;1326;22555;-71
2022/06/18 02:54:22;;;;;;;;;;;;;;;11.04;82.38;101010.13;84755;1330;25432;-72
2022/06/18 02:56:26;;;;;;;;;;;;;;;11.06;82.44;101005.69;84756;1325;24217;-72
2022/06/18 02:58:31;;;;;;;;;;;;;;;11.08;82.64;101011.04;84769;1324;22894;-71
2022/06/18 03:00:36;;;;;;;;;;;;;;;11.13;82.63;101013.36;84758;1326;22554;-71
2022/06/18 03:02:39;;;;;;;;;;;;;;;11.18;82.89;101009.02;84781;1324;22690;-71
2022/06/18 03:04:42;;;;;;;;;;;;;;;11.25;82.92;101010.55;84770;1324;22567;-70
2022/06/18 03:06:46;;;;;;;;;;;;;;;11.31;83.08;101011.76;84754;1327;22595;-70
2022/06/18 03:08:49;;;;;;;;;;;;;;;11.37;83.14;101008.41;84754;1326;22906;-71
2022/06/18 03:13:18;;;;;;;;;;;;;;;11.55;83.18;101019.91;84751;1326;22646;-72
2022/06/18 03:15:21;;;;;;;;;;;;;;;11.66;83.36;101020.98;84763;1326;22580;-71
2022/06/18 03:17:24;;;;;;;;;;;;;;;11.75;83.46;101023.80;84747;1326;22589;-72
2022/06/18 03:19:33;;;;;;;;;;;;;;;11.86;83.50;101023.66;84758;1323;22581;-71
2022/06/18 03:21:37;;;;;;;;;;;;;;;11.99;83.52;101026.71;84772;1325;22616;-71
2022/06/18 03:23:41;;;;;;;;;;;;;;;12.13;83.57;101023.98;84771;1327;22764;-71
2022/06/18 03:25:44;;;;;;;;;;;;;;;12.30;83.53;101021.98;84757;1327;22598;-71
2022/06/18 03:27:47;;;;;;;;;;;;;;;12.49;83.57;101020.48;84781;1328;22620;-71
2022/06/18 03:29:52;;;;;;;;;;;;;;;12.73;83.43;101023.27;84740;1326;24390;-70
2022/06/18 03:31:56;;;;;;;;;;;;;;;13.12;83.48;101026.56;84791;1327;22724;-71
2022/06/18 03:34:00;;;;;;;;;;;;;;;13.68;83.85;101023.68;84753;1326;22593;-70
2022/06/18 03:36:04;;;;;;;;;;;;;;;14.20;83.30;101022.41;84753;1326;22644;-70
2022/06/18 03:38:08;;;;;;;;;;;;;;;14.70;81.89;101022.52;84777;1326;22621;-70
2022/06/18 03:40:13;;;;;;;;;;;;;;;15.16;80.79;101018.46;84765;1325;22571;-71
2022/06/18 03:42:16;;;;;;;;;;;;;;;15.69;80.03;101015.23;84746;1330;22870;-72
2022/06/18 03:44:20;;;;;;;;;;;;;;;16.28;78.65;101006.70;84752;1327;25236;-71
2022/06/18 03:46:23;;;;;;;;;;;;;;;16.90;77.45;101004.49;84750;1327;22622;-72
2022/06/18 03:48:28;;;;;;;;;;;;;;;17.66;76.37;101000.78;84758;1330;25260;-72
2022/06/18 03:50:31;;;;;;;;;;;;;;;18.46;74.63;101001.89;84800;1327;22617;-72
2022/06/18 03:52:34;;;;;;;;;;;;;;;19.22;72.23;100998.02;84757;1326;22606;-71
2022/06/18 03:54:38;;;;;;;;;;;;;;;19.96;70.65;100996.88;84738;1326;22564;-72
2022/06/18 03:56:41;;;;;;;;;;;;;;;20.70;67.73;100993.95;84586;1326;242069;-71
2022/06/18 03:58:45;;;;;;;;;;;;;;;21.13;64.94;100992.30;84767;1327;25675;-71
2022/06/18 04:00:48;;;;;;;;;;;;;;;20.96;62.65;100991.60;84763;1326;22687;-71
2022/06/18 04:02:51;;;;;;;;;;;;;;;20.47;61.54;100992.39;84788;1327;22583;-72
2022/06/18 04:04:54;;;;;;;;;;;;;;;20.01;61.91;100999.95;84777;1329;22600;-72
2022/06/18 04:06:58;;;;;;;;;;;;;;;19.67;62.16;101000.42;84765;1326;24361;-72
2022/06/18 04:09:01;;;;;;;;;;;;;;;19.43;62.61;101000.02;84772;1326;22657;-71
2022/06/18 04:11:04;;;;;;;;;;;;;;;19.41;63.14;101000.73;84751;1327;22593;-71
2022/06/18 04:13:08;;;;;;;;;;;;;;;19.72;64.01;100999.04;84768;1328;22563;-72
2022/06/18 04:15:12;;;;;;;;;;;;;;;20.24;63.66;100999.23;84760;1330;22812;-72
2022/06/18 04:17:15;;;;;;;;;;;;;;;20.68;61.94;101003.01;84759;1330;22586;-72
2022/06/18 04:19:19;;;;;;;;;;;;;;;20.93;60.88;101000.86;84777;1326;22609;-72
2022/06/18 04:21:22;;;;;;;;;;;;;;;21.12;60.80;101002.48;84764;1330;22619;-72
2022/06/18 04:23:25;;;;;;;;;;;;;;;21.23;59.77;101002.08;84742;1326;22745;-72
2022/06/18 04:25:30;;;;;;;;;;;;;;;21.64;60.61;100998.73;84754;1326;22708;-72
2022/06/18 04:27:33;;;;;;;;;;;;;;;22.32;59.39;101001.36;84771;1326;22851;-72
2022/06/18 04:29:37;;;;;;;;;;;;;;;23.00;57.61;100998.73;84763;1326;22568;-71
2022/06/18 04:31:40;;;;;;;;;;;;;;;23.59;56.08;100993.19;84758;1326;22604;-71
2022/06/18 04:33:43;;;;;;;;;;;;;;;24.24;54.11;100987.52;84763;1326;25287;-71
2022/06/18 04:35:49;;;;;;;;;;;;;;;24.80;52.53;100984.34;84763;1326;22723;-72
2022/06/18 04:37:52;;;;;;;;;;;;;;;25.18;51.08;100979.91;84782;1326;22607;-71
2022/06/18 04:39:56;;;;;;;;;;;;;;;25.34;49.92;100980.27;84746;1330;24252;-72
2022/06/18 04:41:59;;;;;;;;;;;;;;;25.30;49.03;100981.48;84787;1326;22534;-72
2022/06/18 04:44:03;;;;;;;;;;;;;;;25.07;48.88;100984.80;84757;1326;22620;-72
2022/06/18 04:46:06;;;;;;;;;;;;;;;24.71;49.38;100984.58;84762;1326;24275;-72
2022/06/18 04:48:10;;;;;;;;;;;;;;;24.35;49.89;100984.10;84738;1328;22590;-72
2022/06/18 04:50:19;;;;;;;;;;;;;;;24.13;50.13;100980.64;84746;1323;22588;-71
2022/06/18 04:52:22;;;;;;;;;;;;;;;23.91;50.19;100975.40;84763;1327;23946;-72
2022/06/18 04:54:25;;;;;;;;;;;;;;;23.77;50.45;100978.05;84787;1330;22603;-72
2022/06/18 04:56:28;;;;;;;;;;;;;;;23.72;51.25;100976.36;84752;1326;22578;-72
2022/06/18 04:58:32;;;;;;;;;;;;;;;23.64;51.33;100980.00;84760;1330;22591;-71
2022/06/18 05:00:35;;;;;;;;;;;;;;;23.55;51.47;100980.71;84769;1326;26941;-71
2022/06/18 05:02:39;;;;;;;;;;;;;;;23.53;51.20;100978.96;84759;1326;22787;-72
2022/06/18 05:04:42;;;;;;;;;;;;;;;23.48;51.35;100977.20;84792;1326;24676;-72
2022/06/18 05:06:45;;;;;;;;;;;;;;;23.45;51.39;100978.15;84701;1328;24283;-72
2022/06/18 05:08:49;;;;;;;;;;;;;;;23.47;51.09;100976.57;84747;1329;22589;-71
2022/06/18 05:10:52;;;;;;;;;;;;;;;23.46;51.33;100972.73;84770;1326;23991;-70
2022/06/18 05:12:55;;;;;;;;;;;;;;;23.60;51.32;100970.87;84799;1326;22685;-72
2022/06/18 05:14:59;;;;;;;;;;;;;;;23.77;51.31;100972.67;84789;1326;22620;-72
2022/06/18 05:17:04;;;;;;;;;;;;;;;23.94;50.45;100974.09;84785;1326;22667;-71
2022/06/18 05:19:10;;;;;;;;;;;;;;;24.01;49.96;100970.98;84775;1328;22590;-71
2022/06/18 05:21:14;;;;;;;;;;;;;;;24.07;50.46;100972.48;84759;1327;22590;-71
2022/06/18 05:23:17;;;;;;;;;;;;;;;24.16;50.40;100974.66;84785;1326;22545;-72
2022/06/18 05:25:21;;;;;;;;;;;;;;;24.28;50.24;100972.08;84778;1326;22522;-72
2022/06/18 05:27:26;;;;;;;;;;;;;;;24.43;49.83;100976.50;84752;1326;25367;-71
2022/06/18 05:29:29;;;;;;;;;;;;;;;24.61;49.52;100972.95;84747;1327;22818;-72
2022/06/18 05:31:32;;;;;;;;;;;;;;;24.84;48.65;100967.39;84772;1326;23581;-72
2022/06/18 05:33:36;;;;;;;;;;;;;;;24.93;47.63;100970.85;84750;1323;22642;-72
2022/06/18 05:35:40;;;;;;;;;;;;;;;25.03;47.38;100966.98;84733;1326;22601;-72
2022/06/18 05:37:43;;;;;;;;;;;;;;;25.26;47.47;100961.17;84755;1326;22675;-72
2022/06/18 05:39:46;;;;;;;;;;;;;;;25.66;47.98;100964.77;84795;1329;22652;-72
2022/06/18 05:41:49;;;;;;;;;;;;;;;25.97;46.42;100966.27;84743;1326;22590;-72
2022/06/18 05:43:53;;;;;;;;;;;;;;;26.23;45.40;100965.08;84757;1326;23827;-72
2022/06/18 05:45:56;;;;;;;;;;;;;;;26.48;44.86;100968.10;84739;1329;22584;-72
2022/06/18 05:47:59;;;;;;;;;;;;;;;26.60;44.20;100962.67;84743;1327;22597;-72
2022/06/18 05:50:04;;;;;;;;;;;;;;;26.58;44.23;100970.87;84693;1329;23789;-71
2022/06/18 05:52:07;;;;;;;;;;;;;;;26.43;43.78;100973.36;84731;1326;22601;-72
2022/06/18 05:54:10;;;;;;;;;;;;;;;26.35;44.68;100972.63;84848;1327;22826;-72
2022/06/18 05:56:14;;;;;;;;;;;;;;;26.55;44.59;100970.99;84750;1326;24278;-72
2022/06/18 05:58:17;;;;;;;;;;;;;;;26.92;43.61;100970.99;84734;1326;24288;-72
2022/06/18 06:00:23;;;;;;;;;;;;;;;27.24;43.16;100964.80;84771;1329;22603;-72
2022/06/18 06:02:26;;;;;;;;;;;;;;;27.66;42.95;100965.82;84782;1326;25420;-72
2022/06/18 06:04:29;;;;;;;;;;;;;;;28.01;41.88;100962.09;84792;1326;22744;-72
2022/06/18 06:06:33;;;;;;;;;;;;;;;28.22;40.38;100961.70;84800;1326;22614;-72
2022/06/18 06:08:36;;;;;;;;;;;;;;;28.35;40.03;100959.98;84805;1328;24260;-72
2022/06/18 06:13:01;;;;;;;;;;;;;;;28.89;39.22;100957.52;84757;1327;25288;-71
2022/06/18 06:15:06;;;;;;;;;;;;;;;29.36;38.31;100955.78;84810;1326;22690;-72
2022/06/18 06:17:13;;;;;;;;;;;;;;;29.92;37.41;100956.84;84846;1330;22633;-72
2022/06/18 06:19:16;;;;;;;;;;;;;;;30.57;36.11;100958.18;84824;1326;22803;-72
2022/06/18 06:21:19;;;;;;;;;;;;;;;31.17;35.11;100954.89;84821;1326;25417;-72
2022/06/18 06:23:23;;;;;;;;;;;;;;;31.87;33.93;100950.47;84838;1327;23871;-72
2022/06/18 06:25:26;;;;;;;;;;;;;;;32.66;32.82;100947.28;84810;1326;23683;-72
2022/06/18 06:27:29;;;;;;;;;;;;;;;33.38;31.75;100944.58;84814;1330;25272;-72
2022/06/18 06:29:32;;;;;;;;;;;;;;;33.61;31.21;100941.51;84818;1330;22776;-72
2022/06/18 06:31:36;;;;;;;;;;;;;;;33.60;30.88;100940.33;84810;1326;22666;-72
2022/06/18 06:33:39;;;;;;;;;;;;;;;33.57;30.58;100935.59;84820;1327;22732;-72
2022/06/18 06:35:43;;;;;;;;;;;;;;;33.48;30.29;100934.03;84821;1329;22584;-73
2022/06/18 06:37:46;;;;;;;;;;;;;;;33.44;30.50;100929.26;84823;1330;22590;-73
2022/06/18 06:39:49;;;;;;;;;;;;;;;33.44;30.60;100929.11;84803;1326;22853;-73
2022/06/18 06:41:53;;;;;;;;;;;;;;;33.38;29.98;100925.61;84789;1327;25278;-72
2022/06/18 06:43:56;;;;;;;;;;;;;;;33.32;30.29;100923.21;84829;1328;24385;-72
2022/06/18 06:45:59;;;;;;;;;;;;;;;33.34;30.11;100921.44;84811;1328;22576;-73
2022/06/18 06:48:04;;;;;;;;;;;;;;;33.30;30.17;100923.23;84817;1326;23309;-73
2022/06/18 06:50:10;;;;;;;;;;;;;;;33.46;29.69;100920.45;84771;1329;25244;-73
2022/06/18 06:52:13;;;;;;;;;;;;;;;33.89;29.44;100921.30;84817;1327;22594;-73
2022/06/18 06:54:16;;;;;;;;;;;;;;;34.52;29.28;100921.61;84797;1330;23916;-72
2022/06/18 06:58:42;;;;;;;;;;;;;;;35.26;27.96;100917.04;84818;1330;22582;-72
2022/06/18 07:00:47;;;;;;;;;;;;;;;35.37;27.35;100914.96;84791;1327;22674;-72
2022/06/18 07:02:50;;;;;;;;;;;;;;;35.48;27.65;100910.89;84840;1326;23914;-72
2022/06/18 07:04:54;;;;;;;;;;;;;;;35.57;27.46;100909.89;84793;1327;22615;-72
2022/06/18 07:06:57;;;;;;;;;;;;;;;35.78;27.16;100909.80;84805;1326;22640;-72
2022/06/18 07:09:01;;;;;;;;;;;;;;;35.95;26.87;100907.12;84782;1327;22582;-72
2022/06/18 07:11:04;;;;;;;;;;;;;;;36.10;26.94;100908.27;84792;1330;25259;-73
2022/06/18 07:13:07;;;;;;;;;;;;;;;36.31;26.55;100911.70;84794;1330;22629;-73
2022/06/18 07:15:11;;;;;;;;;;;;;;;36.68;26.35;100909.83;84778;1326;23814;-73
2022/06/18 07:17:15;;;;;;;;;;;;;;;36.78;26.14;100909.31;84781;1330;22577;-73
2022/06/18 07:19:18;;;;;;;;;;;;;;;36.85;25.85;100907.86;84789;1326;22609;-71
2022/06/18 07:21:22;;;;;;;;;;;;;;;36.70;25.69;100906.41;84798;1326;24266;-73
2022/06/18 07:23:25;;;;;;;;;;;;;;;36.22;25.83;100902.67;84793;1326;22615;-73
2022/06/18 07:25:29;;;;;;;;;;;;;;;35.81;26.69;100899.70;84779;1327;24231;-73
2022/06/18 07:27:32;;;;;;;;;;;;;;;35.69;26.84;100904.66;84763;1330;23975;-73
2022/06/18 07:29:36;;;;;;;;;;;;;;;35.59;26.76;100899.46;84779;1328;23062;-73
2022/06/18 07:31:39;;;;;;;;;;;;;;;35.57;27.02;100898.05;84770;1326;23117;-73
2022/06/18 07:33:42;;;;;;;;;;;;;;;35.50;26.92;100896.44;84771;1323;22585;-73
2022/06/18 07:35:46;;;;;;;;;;;;;;;35.26;27.32;100897.23;84771;1326;24345;-73
2022/06/18 07:37:49;;;;;;;;;;;;;;;34.97;27.53;100901.86;84766;1326;24194;-73
2022/06/18 07:39:52;;;;;;;;;;;;;;;34.65;27.77;100905.30;84785;1326;23955;-73
2022/06/18 07:41:55;;;;;;;;;;;;;;;34.19;28.30;100906.39;84779;1327;23854;-73
2022/06/18 07:43:59;;;;;;;;;;;;;;;33.64;28.71;100903.08;84771;1326;25398;-73
2022/06/18 07:46:03;;;;;;;;;;;;;;;33.30;29.11;100906.41;84786;1326;22577;-73
2022/06/18 07:48:07;;;;;;;;;;;;;;;33.08;29.70;100908.11;84786;1326;24266;-73
2022/06/18 07:50:11;;;;;;;;;;;;;;;32.86;30.05;100904.98;84654;1329;22571;-73
2022/06/18 07:52:14;;;;;;;;;;;;;;;32.74;30.22;100904.70;84771;1326;25403;-73
2022/06/18 07:54:18;;;;;;;;;;;;;;;32.63;30.25;100903.95;84783;1326;22583;-73
2022/06/18 07:56:21;;;;;;;;;;;;;;;32.37;30.04;100903.48;84760;1328;22567;-70
2022/06/18 07:58:26;;;;;;;;;;;;;;;32.08;30.36;100903.75;84758;1326;22618;-72
2022/06/18 08:00:29;;;;;;;;;;;;;;;31.72;30.78;100907.13;84780;1329;22599;-72
2022/06/18 08:02:36;;;;;;;;;;;;;;;31.37;31.00;100907.55;84778;1327;22641;-72
2022/06/18 08:04:39;;;;;;;;;;;;;;;31.07;31.89;100911.39;84753;1326;23840;-72
2022/06/18 08:06:43;;;;;;;;;;;;;;;30.86;32.50;100911.14;84731;1326;23407;-72
2022/06/18 08:08:46;;;;;;;;;;;;;;;30.72;32.61;100911.11;84793;1327;24284;-72
2022/06/18 08:10:51;;;;;;;;;;;;;;;30.66;33.33;100906.02;84791;1327;25443;-71
2022/06/18 08:12:54;;;;;;;;;;;;;;;30.51;33.55;100912.01;84759;1328;22749;-72
2022/06/18 08:14:58;;;;;;;;;;;;;;;30.39;34.17;100912.73;84770;1327;22593;-72
2022/06/18 08:17:02;;;;;;;;;;;;;;;30.27;33.53;100914.44;84781;1326;22600;-72
2022/06/18 08:19:05;;;;;;;;;;;;;;;30.13;34.83;100912.84;84782;1330;23735;-71
2022/06/18 08:21:10;;;;;;;;;;;;;;;29.89;34.64;100911.82;84770;1327;22578;-72
2022/06/18 08:23:13;;;;;;;;;;;;;;;29.66;34.67;100910.46;84780;1329;22595;-72
2022/06/18 08:25:17;;;;;;;;;;;;;;;29.45;35.64;100912.05;84775;1326;22567;-72
2022/06/18 08:27:20;;;;;;;;;;;;;;;29.21;36.66;100907.75;84763;1326;22568;-71
2022/06/18 08:29:24;;;;;;;;;;;;;;;28.99;36.59;100910.15;84749;1330;22597;-72
2022/06/18 08:31:27;;;;;;;;;;;;;;;28.74;36.93;100909.23;84751;1328;24343;-72
2022/06/18 08:33:31;;;;;;;;;;;;;;;28.48;37.20;100907.36;84751;1330;22814;-71
2022/06/18 08:35:37;;;;;;;;;;;;;;;28.32;38.10;100905.38;84743;1326;22746;-73
2022/06/18 08:37:41;;;;;;;;;;;;;;;28.15;38.72;100901.98;84756;1325;22680;-72
2022/06/18 08:39:44;;;;;;;;;;;;;;;28.07;38.69;100897.80;84748;1330;22577;-72
2022/06/18 08:42:01;;;;;;;;;;;;;;;28.02;38.81;100897.54;84750;1327;25298;-72
2022/06/18 08:44:43;;;;;;;;;;;;;;;28.04;39.05;100895.46;84758;1326;22575;-73
2022/06/18 08:47:01;;;;;;;;;;;;;;;28.09;38.79;100894.77;84609;1330;22581;-72
2022/06/18 08:49:31;;;;;;;;;;;;;;;28.11;38.41;100893.04;84768;1326;22838;-72
2022/06/18 08:51:38;;;;;;;;;;;;;;;28.05;38.17;100891.54;84742;1326;22822;-72
2022/06/18 08:54:05;;;;;;;;;;;;;;;27.98;37.95;100894.72;84738;1329;24359;-72
2022/06/18 08:56:10;;;;;;;;;;;;;;;27.98;38.36;100899.40;84762;1327;22636;-72
2022/06/18 08:58:16;;;;;;;;;;;;;;;28.01;37.85;100899.67;84741;1327;22585;-72
2022/06/18 09:00:25;;;;;;;;;;;;;;;28.00;37.91;100891.34;84715;1327;22698;-72
2022/06/18 09:02:31;;;;;;;;;;;;;;;27.97;38.11;100887.83;84724;1330;22567;-72
2022/06/18 09:04:42;;;;;;;;;;;;;;;27.93;37.80;100882.69;84741;1325;22589;-72
2022/06/18 09:07:00;;;;;;;;;;;;;;;27.85;37.72;100882.30;84727;1326;22564;-72
2022/06/18 09:09:08;;;;;;;;;;;;;;;27.72;37.92;100881.42;84741;1330;22816;-72
2022/06/18 09:11:21;;;;;;;;;;;;;;;27.67;38.31;100879.45;84752;1326;22586;-72
2022/06/18 09:13:27;;;;;;;;;;;;;;;27.64;37.76;100872.80;84761;1330;25449;-72
2022/06/18 09:15:34;;;;;;;;;;;;;;;27.63;38.01;100871.05;84748;1330;25245;-72
2022/06/18 09:17:40;;;;;;;;;;;;;;;27.67;38.59;100871.86;84758;1330;22634;-72
2022/06/18 09:19:45;;;;;;;;;;;;;;;27.78;38.75;100871.02;84737;1326;22570;-72
2022/06/18 09:21:51;;;;;;;;;;;;;;;27.97;38.82;100867.08;84727;1326;22800;-72
2022/06/18 09:23:56;;;;;;;;;;;;;;;28.23;38.56;100862.04;84726;1326;25021;-72
2022/06/18 09:26:00;;;;;;;;;;;;;;;28.46;37.61;100858.51;84754;1330;22571;-72
2022/06/18 09:28:05;;;;;;;;;;;;;;;28.53;36.93;100856.92;84701;1329;22705;-72
2022/06/18 09:30:12;;;;;;;;;;;;;;;28.54;37.18;100855.34;84839;1325;22594;-72
2022/06/18 09:32:18;;;;;;;;;;;;;;;28.59;37.42;100857.02;84789;1328;22566;-71
2022/06/18 09:34:23;;;;;;;;;;;;;;;28.67;37.06;100848.70;84737;1330;24107;-72
2022/06/18 09:36:31;;;;;;;;;;;;;;;28.77;36.75;100846.95;84815;1327;22589;-72
2022/06/18 09:38:37;;;;;;;;;;;;;;;28.86;36.63;100844.44;84839;1326;22582;-72
2022/06/18 09:40:44;;;;;;;;;;;;;;;28.86;36.96;100838.45;84819;1330;22991;-72
2022/06/18 09:42:49;;;;;;;;;;;;;;;28.88;36.25;100836.27;84815;1330;22555;-72
2022/06/18 09:44:55;;;;;;;;;;;;;;;28.92;35.52;100833.16;84825;1330;22557;-72
2022/06/18 09:47:01;;;;;;;;;;;;;;;29.03;35.90;100833.25;84813;1329;25420;-72
2022/06/18 09:49:05;;;;;;;;;;;;;;;29.15;35.50;100826.92;84798;1330;22638;-72
2022/06/18 09:51:14;;;;;;;;;;;;;;;29.38;35.14;100817.92;84796;1326;23921;-71
2022/06/18 09:53:19;;;;;;;;;;;;;;;29.58;34.60;100820.34;84792;1330;22672;-71
2022/06/18 09:55:26;;;;;;;;;;;;;;;29.73;34.42;100820.23;84831;1327;22530;-72
2022/06/18 09:57:31;;;;;;;;;;;;;;;29.90;34.01;100809.06;84826;1326;22698;-72
2022/06/18 09:59:35;;;;;;;;;;;;;;;30.01;34.02;100808.50;84824;1330;22888;-72
2022/06/18 10:01:40;;;;;;;;;;;;;;;30.01;34.08;100808.67;84834;1329;22682;-72
2022/06/18 10:08:29;;;;;;;;;;;;;;;29.87;33.23;100799.12;84830;1330;24026;-72
2022/06/18 10:10:33;;;;;;;;;;;;;;;29.85;33.18;100796.35;84797;1330;22883;-72
2022/06/18 10:12:37;;;;;;;;;;;;;;;29.89;33.32;100796.95;84792;1329;22881;-72
2022/06/18 10:14:40;;;;;;;;;;;;;;;30.04;33.51;100791.90;84823;1330;25390;-72
2022/06/18 10:16:49;;;;;;;;;;;;;;;30.18;33.83;100788.81;84794;1328;22575;-72
2022/06/18 10:18:55;;;;;;;;;;;;;;;30.29;33.32;100782.64;84814;1330;22567;-72
2022/06/18 10:20:59;;;;;;;;;;;;;;;30.41;32.27;100781.84;84821;1326;22595;-72
2022/06/18 10:23:06;;;;;;;;;;;;;;;30.54;32.20;100776.53;84817;1328;22604;-71
2022/06/18 10:25:15;;;;;;;;;;;;;;;30.75;32.34;100772.59;84827;1330;22596;-72
2022/06/18 10:27:22;;;;;;;;;;;;;;;30.92;32.29;100772.94;84814;1328;22572;-72
2022/06/18 10:29:29;;;;;;;;;;;;;;;31.08;31.51;100769.61;84820;1330;23792;-72
2022/06/18 10:31:40;;;;;;;;;;;;;;;31.12;31.22;100770.81;84806;1326;22598;-72
2022/06/18 10:33:47;;;;;;;;;;;;;;;31.10;31.10;100762.23;84823;1327;24232;-72
2022/06/18 10:35:54;;;;;;;;;;;;;;;31.05;30.76;100759.12;84818;1327;23031;-72
2022/06/18 10:38:05;;;;;;;;;;;;;;;31.06;30.35;100752.35;84818;1330;22586;-73
2022/06/18 10:40:13;;;;;;;;;;;;;;;31.03;30.59;100753.45;84882;1326;22567;-73
2022/06/18 10:42:24;;;;;;;;;;;;;;;31.01;30.47;100751.02;84864;1330;22608;-72
2022/06/18 10:44:48;;;;;;;;;;;;;;;31.04;30.78;100752.74;84831;1326;22577;-72
2022/06/18 10:47:05;;;;;;;;;;;;;;;31.03;30.93;100751.59;84794;1326;27079;-72
2022/06/18 10:49:09;;;;;;;;;;;;;;;31.05;30.38;100748.14;84802;1330;24328;-72
2022/06/18 10:51:16;;;;;;;;;;;;;;;31.12;30.64;100749.19;84817;1323;22606;-72
2022/06/18 10:53:20;;;;;;;;;;;;;;;31.15;30.53;100752.58;84839;1326;23070;-72
2022/06/18 10:55:23;;;;;;;;;;;;;;;31.14;30.75;100752.15;84828;1326;24285;-70
2022/06/18 10:57:27;;;;;;;;;;;;;;;31.08;30.11;100752.84;84821;1327;22755;-72